sensor_id;sensor_type;location;lat;lon;timestamp;pressure;altitude;pressure_sealevel;temperature;humidity
7297;BME280;40758;54.038;11.684;2024-03-02T00:00:39;100484.31;;;4.32;100.00
7297;BME280;40758;54.038;11.684;2024-03-02T00:03:16;100482.94;;;4.21;100.00
7297;BME280;40758;54.038;11.684;2024-03-02T00:05:42;100477.47;;;4.15;100.00
7297;BME280;40758;54.038;11.684;2024-03-02T00:08:09;100475.34;;;4.10;100.00
7297;BME280;40758;54.038;11.684;2024-03-02T00:10:37;100466.56;;;4.02;100.00
7297;BME280;40758;54.038;11.684;2024-03-02T00:13:12;100468.50;;;3.93;100.00
7297;BME280;40758;54.038;11.684;2024-03-02T00:18:18;100478.50;;;3.99;100.00
7297;BME280;40758;54.038;11.684;2024-03-02T00:20:46;100472.09;;;4.00;100.00
7297;BME280;40758;54.038;11.684;2024-03-02T00:23:17;100471.19;;;4.08;100.00
7297;BME280;40758;54.038;11.684;2024-03-02T00:25:51;100469.81;;;4.12;100.00
7297;BME280;40758;54.038;11.684;2024-03-02T00:28:24;100440.97;;;3.91;100.00
7297;BME280;40758;54.038;11.684;2024-03-02T00:30:58;100466.94;;;4.13;100.00
7297;BME280;40758;54.038;11.684;2024-03-02T00:33:32;100460.78;;;4.05;100.00
7297;BME280;40758;54.038;11.684;2024-03-02T00:35:59;100468.50;;;4.08;100.00
7297;BME280;40758;54.038;11.684;2024-03-02T00:38:27;100472.56;;;4.04;100.00
7297;BME280;40758;54.038;11.684;2024-03-02T00:40:54;100472.56;;;4.04;100.00
7297;BME280;40758;54.038;11.684;2024-03-02T00:45:51;100466.72;;;4.00;100.00
7297;BME280;40758;54.038;11.684;2024-03-02T00:48:18;100463.59;;;3.96;100.00
7297;BME280;40758;54.038;11.684;2024-03-02T00:50:45;100481.75;;;3.94;100.00
7297;BME280;40758;54.038;11.684;2024-03-02T00:53:13;100468.97;;;3.96;100.00
7297;BME280;40758;54.038;11.684;2024-03-02T00:55:40;100458.56;;;3.93;100.00
7297;BME280;40758;54.038;11.684;2024-03-02T00:58:10;100458.13;;;3.90;100.00
7297;BME280;40758;54.038;11.684;2024-03-02T01:00:37;100454.13;;;3.86;100.00
7297;BME280;40758;54.038;11.684;2024-03-02T01:03:05;100456.00;;;3.85;100.00
7297;BME280;40758;54.038;11.684;2024-03-02T01:05:31;100446.63;;;3.81;100.00
7297;BME280;40758;54.038;11.684;2024-03-02T01:07:58;100443.84;;;3.74;100.00
7297;BME280;40758;54.038;11.684;2024-03-02T01:10:24;100446.72;;;3.73;100.00
7297;BME280;40758;54.038;11.684;2024-03-02T01:12:52;100450.88;;;3.76;100.00
7297;BME280;40758;54.038;11.684;2024-03-02T01:15:19;100451.53;;;3.78;100.00
7297;BME280;40758;54.038;11.684;2024-03-02T01:17:46;100451.16;;;3.81;100.00
7297;BME280;40758;54.038;11.684;2024-03-02T01:20:12;100444.97;;;3.80;100.00
7297;BME280;40758;54.038;11.684;2024-03-02T01:22:39;100450.97;;;3.82;100.00
7297;BME280;40758;54.038;11.684;2024-03-02T01:25:06;100452.66;;;3.83;100.00
7297;BME280;40758;54.038;11.684;2024-03-02T01:27:35;100457.56;;;3.80;100.00
7297;BME280;40758;54.038;11.684;2024-03-02T01:30:02;100448.75;;;3.71;100.00
7297;BME280;40758;54.038;11.684;2024-03-02T01:32:28;100449.84;;;3.62;100.00
7297;BME280;40758;54.038;11.684;2024-03-02T01:34:55;100443.19;;;3.58;100.00
7297;BME280;40758;54.038;11.684;2024-03-02T01:37:22;100432.72;;;3.48;100.00
7297;BME280;40758;54.038;11.684;2024-03-02T01:39:49;100436.50;;;3.54;100.00
7297;BME280;40758;54.038;11.684;2024-03-02T01:42:16;100434.00;;;3.52;100.00
7297;BME280;40758;54.038;11.684;2024-03-02T01:44:43;100432.81;;;3.55;100.00
7297;BME280;40758;54.038;11.684;2024-03-02T01:47:10;100433.56;;;3.63;100.00
7297;BME280;40758;54.038;11.684;2024-03-02T01:49:36;100439.69;;;3.72;100.00
7297;BME280;40758;54.038;11.684;2024-03-02T01:52:05;100445.34;;;3.77;100.00
7297;BME280;40758;54.038;11.684;2024-03-02T01:54:32;100433.59;;;3.78;100.00
7297;BME280;40758;54.038;11.684;2024-03-02T01:57:00;100431.53;;;3.80;100.00
7297;BME280;40758;54.038;11.684;2024-03-02T01:59:27;100430.69;;;3.80;100.00
7297;BME280;40758;54.038;11.684;2024-03-02T02:01:54;100432.16;;;3.82;100.00
7297;BME280;40758;54.038;11.684;2024-03-02T02:04:20;100434.50;;;3.85;100.00
7297;BME280;40758;54.038;11.684;2024-03-02T02:06:54;100434.50;;;3.85;100.00
7297;BME280;40758;54.038;11.684;2024-03-02T02:09:20;100426.44;;;3.85;100.00
7297;BME280;40758;54.038;11.684;2024-03-02T02:11:47;100421.63;;;3.81;100.00
7297;BME280;40758;54.038;11.684;2024-03-02T02:14:14;100428.22;;;3.78;100.00
7297;BME280;40758;54.038;11.684;2024-03-02T02:16:41;100422.66;;;3.80;100.00
7297;BME280;40758;54.038;11.684;2024-03-02T02:19:07;100417.38;;;3.71;100.00
7297;BME280;40758;54.038;11.684;2024-03-02T02:21:34;100425.88;;;3.75;100.00
7297;BME280;40758;54.038;11.684;2024-03-02T02:24:01;100414.03;;;3.69;100.00
7297;BME280;40758;54.038;11.684;2024-03-02T02:26:30;100423.00;;;3.62;100.00
7297;BME280;40758;54.038;11.684;2024-03-02T02:28:57;100416.03;;;3.53;100.00
7297;BME280;40758;54.038;11.684;2024-03-02T02:31:23;100415.75;;;3.47;100.00
7297;BME280;40758;54.038;11.684;2024-03-02T02:33:50;100410.28;;;3.41;100.00
7297;BME280;40758;54.038;11.684;2024-03-02T02:36:16;100415.56;;;3.34;100.00
7297;BME280;40758;54.038;11.684;2024-03-02T02:38:46;100418.47;;;3.25;100.00
7297;BME280;40758;54.038;11.684;2024-03-02T02:41:14;100406.53;;;3.12;100.00
7297;BME280;40758;54.038;11.684;2024-03-02T02:43:41;100406.28;;;3.22;100.00
7297;BME280;40758;54.038;11.684;2024-03-02T02:46:08;100410.56;;;3.31;100.00
7297;BME280;40758;54.038;11.684;2024-03-02T02:48:35;100411.69;;;3.37;100.00
7297;BME280;40758;54.038;11.684;2024-03-02T02:51:01;100415.84;;;3.39;100.00
7297;BME280;40758;54.038;11.684;2024-03-02T02:53:28;100411.50;;;3.38;100.00
7297;BME280;40758;54.038;11.684;2024-03-02T02:55:55;100410.19;;;3.34;100.00
7297;BME280;40758;54.038;11.684;2024-03-02T02:58:21;100407.31;;;3.36;100.00
7297;BME280;40758;54.038;11.684;2024-03-02T03:00:48;100401.41;;;3.40;100.00
7297;BME280;40758;54.038;11.684;2024-03-02T03:03:15;100415.03;;;3.54;100.00
7297;BME280;40758;54.038;11.684;2024-03-02T03:05:42;100408.09;;;3.59;100.00
7297;BME280;40758;54.038;11.684;2024-03-02T03:08:08;100415.44;;;3.65;100.00
7297;BME280;40758;54.038;11.684;2024-03-02T03:10:35;100410.31;;;3.70;100.00
7297;BME280;40758;54.038;11.684;2024-03-02T03:13:02;100403.38;;;3.76;100.00
7297;BME280;40758;54.038;11.684;2024-03-02T03:15:29;100404.69;;;3.80;100.00
7297;BME280;40758;54.038;11.684;2024-03-02T03:17:55;100403.00;;;3.79;100.00
7297;BME280;40758;54.038;11.684;2024-03-02T03:20:22;100409.69;;;3.83;100.00
7297;BME280;40758;54.038;11.684;2024-03-02T03:22:49;100411.78;;;3.88;100.00
7297;BME280;40758;54.038;11.684;2024-03-02T03:25:16;100396.91;;;3.85;100.00
7297;BME280;40758;54.038;11.684;2024-03-02T03:27:43;100407.09;;;3.90;100.00
7297;BME280;40758;54.038;11.684;2024-03-02T03:30:10;100409.31;;;3.86;100.00
7297;BME280;40758;54.038;11.684;2024-03-02T03:32:37;100406.41;;;3.88;100.00
7297;BME280;40758;54.038;11.684;2024-03-02T03:35:04;100395.59;;;3.81;100.00
7297;BME280;40758;54.038;11.684;2024-03-02T03:37:32;100405.78;;;3.86;100.00
7297;BME280;40758;54.038;11.684;2024-03-02T03:40:02;100398.00;;;3.91;100.00
7297;BME280;40758;54.038;11.684;2024-03-02T03:42:29;100399.13;;;3.96;100.00
7297;BME280;40758;54.038;11.684;2024-03-02T03:44:56;100392.72;;;3.97;100.00
7297;BME280;40758;54.038;11.684;2024-03-02T03:47:22;100395.59;;;3.96;100.00
7297;BME280;40758;54.038;11.684;2024-03-02T03:49:49;100403.19;;;3.92;100.00
7297;BME280;40758;54.038;11.684;2024-03-02T03:52:16;100397.53;;;3.87;100.00
7297;BME280;40758;54.038;11.684;2024-03-02T03:54:42;100391.72;;;3.84;100.00
7297;BME280;40758;54.038;11.684;2024-03-02T03:57:11;100396.25;;;3.83;100.00
7297;BME280;40758;54.038;11.684;2024-03-02T03:59:38;100379.59;;;3.73;100.00
7297;BME280;40758;54.038;11.684;2024-03-02T04:02:04;100401.25;;;3.86;100.00
7297;BME280;40758;54.038;11.684;2024-03-02T04:04:31;100401.06;;;3.88;100.00
7297;BME280;40758;54.038;11.684;2024-03-02T04:06:58;100401.53;;;3.91;100.00
7297;BME280;40758;54.038;11.684;2024-03-02T04:09:24;100396.44;;;3.96;100.00
7297;BME280;40758;54.038;11.684;2024-03-02T04:11:52;100396.31;;;4.05;100.00
7297;BME280;40758;54.038;11.684;2024-03-02T04:14:18;100396.41;;;4.11;100.00
7297;BME280;40758;54.038;11.684;2024-03-02T04:16:45;100391.28;;;4.16;100.00
7297;BME280;40758;54.038;11.684;2024-03-02T04:19:12;100394.91;;;4.23;100.00
7297;BME280;40758;54.038;11.684;2024-03-02T04:21:38;100395.34;;;4.27;100.00
7297;BME280;40758;54.038;11.684;2024-03-02T04:24:05;100391.28;;;4.31;100.00
7297;BME280;40758;54.038;11.684;2024-03-02T04:26:32;100395.91;;;4.37;100.00
7297;BME280;40758;54.038;11.684;2024-03-02T04:28:58;100404.22;;;4.42;100.00
7297;BME280;40758;54.038;11.684;2024-03-02T04:31:25;100407.13;;;4.41;100.00
7297;BME280;40758;54.038;11.684;2024-03-02T04:33:52;100412.50;;;4.41;100.00
7297;BME280;40758;54.038;11.684;2024-03-02T04:36:19;100405.81;;;4.37;100.00
7297;BME280;40758;54.038;11.684;2024-03-02T04:38:45;100419.13;;;4.45;100.00
7297;BME280;40758;54.038;11.684;2024-03-02T04:41:12;100412.56;;;4.47;100.00
7297;BME280;40758;54.038;11.684;2024-03-02T04:43:39;100402.81;;;4.46;100.00
7297;BME280;40758;54.038;11.684;2024-03-02T04:46:05;100411.81;;;4.53;100.00
7297;BME280;40758;54.038;11.684;2024-03-02T04:48:36;100411.59;;;4.55;100.00
7297;BME280;40758;54.038;11.684;2024-03-02T04:51:03;100415.38;;;4.61;100.00
7297;BME280;40758;54.038;11.684;2024-03-02T04:53:30;100406.91;;;4.64;100.00
7297;BME280;40758;54.038;11.684;2024-03-02T04:55:56;100409.25;;;4.67;100.00
7297;BME280;40758;54.038;11.684;2024-03-02T04:58:41;100416.75;;;4.71;100.00
7297;BME280;40758;54.038;11.684;2024-03-02T05:01:08;100414.50;;;4.75;100.00
7297;BME280;40758;54.038;11.684;2024-03-02T05:03:35;100417.84;;;4.77;100.00
7297;BME280;40758;54.038;11.684;2024-03-02T05:06:02;100417.84;;;4.77;100.00
7297;BME280;40758;54.038;11.684;2024-03-02T05:08:28;100418.28;;;4.80;100.00
7297;BME280;40758;54.038;11.684;2024-03-02T05:10:55;100412.06;;;4.80;100.00
7297;BME280;40758;54.038;11.684;2024-03-02T05:13:42;100414.59;;;4.82;100.00
7297;BME280;40758;54.038;11.684;2024-03-02T05:16:09;100412.91;;;4.80;100.00
7297;BME280;40758;54.038;11.684;2024-03-02T05:18:37;100423.75;;;4.87;100.00
7297;BME280;40758;54.038;11.684;2024-03-02T05:21:04;100422.53;;;4.90;100.00
7297;BME280;40758;54.038;11.684;2024-03-02T05:23:31;100426.31;;;4.95;100.00
7297;BME280;40758;54.038;11.684;2024-03-02T05:25:57;100414.03;;;4.93;100.00
7297;BME280;40758;54.038;11.684;2024-03-02T05:28:24;100427.59;;;4.99;100.00
7297;BME280;40758;54.038;11.684;2024-03-02T05:30:51;100426.75;;;4.99;100.00
7297;BME280;40758;54.038;11.684;2024-03-02T05:33:17;100420.97;;;5.02;100.00
7297;BME280;40758;54.038;11.684;2024-03-02T05:35:44;100426.81;;;5.05;100.00
7297;BME280;40758;54.038;11.684;2024-03-02T05:38:11;100424.75;;;5.07;100.00
7297;BME280;40758;54.038;11.684;2024-03-02T05:40:38;100424.38;;;5.11;100.00
7297;BME280;40758;54.038;11.684;2024-03-02T05:43:05;100433.91;;;5.13;100.00
7297;BME280;40758;54.038;11.684;2024-03-02T05:45:32;100424.81;;;5.14;100.00
7297;BME280;40758;54.038;11.684;2024-03-02T05:47:59;100428.53;;;5.13;100.00
7297;BME280;40758;54.038;11.684;2024-03-02T05:50:25;100433.72;;;5.15;100.00
7297;BME280;40758;54.038;11.684;2024-03-02T05:52:55;100440.75;;;5.16;100.00
7297;BME280;40758;54.038;11.684;2024-03-02T05:55:22;100431.78;;;5.08;100.00
7297;BME280;40758;54.038;11.684;2024-03-02T05:57:49;100438.94;;;5.16;100.00
7297;BME280;40758;54.038;11.684;2024-03-02T06:00:29;100453.22;;;5.17;100.00
7297;BME280;40758;54.038;11.684;2024-03-02T06:02:57;100455.06;;;5.16;100.00
7297;BME280;40758;54.038;11.684;2024-03-02T06:05:24;100455.91;;;5.17;100.00
7297;BME280;40758;54.038;11.684;2024-03-02T06:07:51;100459.59;;;5.16;100.00
7297;BME280;40758;54.038;11.684;2024-03-02T06:10:18;100456.91;;;5.16;100.00
7297;BME280;40758;54.038;11.684;2024-03-02T06:12:44;100463.97;;;5.17;100.00
7297;BME280;40758;54.038;11.684;2024-03-02T06:15:11;100452.56;;;5.15;100.00
7297;BME280;40758;54.038;11.684;2024-03-02T06:17:38;100465.25;;;5.21;100.00
7297;BME280;40758;54.038;11.684;2024-03-02T06:20:05;100455.91;;;5.17;100.00
7297;BME280;40758;54.038;11.684;2024-03-02T06:22:34;100477.50;;;5.23;100.00
7297;BME280;40758;54.038;11.684;2024-03-02T06:25:01;100471.91;;;5.25;100.00
7297;BME280;40758;54.038;11.684;2024-03-02T06:27:28;100470.69;;;5.27;100.00
7297;BME280;40758;54.038;11.684;2024-03-02T06:29:54;100464.66;;;5.25;100.00
7297;BME280;40758;54.038;11.684;2024-03-02T06:32:21;100464.09;;;5.30;100.00
7297;BME280;40758;54.038;11.684;2024-03-02T06:34:49;100467.41;;;5.32;100.00
7297;BME280;40758;54.038;11.684;2024-03-02T06:37:16;100472.44;;;5.35;100.00
7297;BME280;40758;54.038;11.684;2024-03-02T06:39:43;100477.59;;;5.37;100.00
7297;BME280;40758;54.038;11.684;2024-03-02T06:42:10;100464.72;;;5.32;100.00
7297;BME280;40758;54.038;11.684;2024-03-02T06:44:36;100473.50;;;5.41;100.00
7297;BME280;40758;54.038;11.684;2024-03-02T06:47:04;100480.16;;;5.45;100.00
7297;BME280;40758;54.038;11.684;2024-03-02T06:49:31;100474.97;;;5.43;100.00
7297;BME280;40758;54.038;11.684;2024-03-02T06:51:58;100471.25;;;5.44;100.00
7297;BME280;40758;54.038;11.684;2024-03-02T06:54:25;100477.28;;;5.46;100.00
7297;BME280;40758;54.038;11.684;2024-03-02T06:56:52;100476.25;;;5.47;100.00
7297;BME280;40758;54.038;11.684;2024-03-02T06:59:18;100477.28;;;5.46;100.00
7297;BME280;40758;54.038;11.684;2024-03-02T07:01:45;100471.91;;;5.46;100.00
7297;BME280;40758;54.038;11.684;2024-03-02T07:04:12;100474.44;;;5.54;100.00
7297;BME280;40758;54.038;11.684;2024-03-02T07:06:38;100469.69;;;5.56;100.00
7297;BME280;40758;54.038;11.684;2024-03-02T07:09:05;100477.38;;;5.59;100.00
7297;BME280;40758;54.038;11.684;2024-03-02T07:11:33;100477.00;;;5.63;100.00
7297;BME280;40758;54.038;11.684;2024-03-02T07:14:01;100473.09;;;5.65;100.00
7297;BME280;40758;54.038;11.684;2024-03-02T07:16:28;100472.88;;;5.67;100.00
7297;BME280;40758;54.038;11.684;2024-03-02T07:18:56;100482.44;;;5.69;100.00
7297;BME280;40758;54.038;11.684;2024-03-02T07:21:23;100479.53;;;5.71;100.00
7297;BME280;40758;54.038;11.684;2024-03-02T07:23:50;100482.50;;;5.76;100.00
7297;BME280;40758;54.038;11.684;2024-03-02T07:26:17;100472.78;;;5.81;100.00
7297;BME280;40758;54.038;11.684;2024-03-02T07:28:49;100471.16;;;5.87;100.00
7297;BME280;40758;54.038;11.684;2024-03-02T07:31:17;100470.41;;;5.93;100.00
7297;BME280;40758;54.038;11.684;2024-03-02T07:33:44;100480.41;;;5.99;100.00
7297;BME280;40758;54.038;11.684;2024-03-02T07:36:12;100482.50;;;6.04;100.00
7297;BME280;40758;54.038;11.684;2024-03-02T07:38:39;100486.28;;;6.09;100.00
7297;BME280;40758;54.038;11.684;2024-03-02T07:41:07;100484.19;;;6.11;100.00
7297;BME280;40758;54.038;11.684;2024-03-02T07:43:34;100494.78;;;6.13;100.00
7297;BME280;40758;54.038;11.684;2024-03-02T07:46:01;100489.59;;;6.11;100.00
7297;BME280;40758;54.038;11.684;2024-03-02T07:48:29;100491.47;;;6.11;100.00
7297;BME280;40758;54.038;11.684;2024-03-02T07:50:57;100490.03;;;6.15;100.00
7297;BME280;40758;54.038;11.684;2024-03-02T07:53:24;100486.47;;;6.14;100.00
7297;BME280;40758;54.038;11.684;2024-03-02T07:55:54;100497.72;;;6.18;100.00
7297;BME280;40758;54.038;11.684;2024-03-02T07:58:23;100497.91;;;6.17;100.00
7297;BME280;40758;54.038;11.684;2024-03-02T08:00:56;100488.59;;;6.19;100.00
7297;BME280;40758;54.038;11.684;2024-03-02T08:03:22;100491.94;;;6.21;100.00
7297;BME280;40758;54.038;11.684;2024-03-02T08:05:49;100496.09;;;6.24;100.00
7297;BME280;40758;54.038;11.684;2024-03-02T08:08:16;100495.72;;;6.27;100.00
7297;BME280;40758;54.038;11.684;2024-03-02T08:10:42;100501.13;;;6.33;100.00
7297;BME280;40758;54.038;11.684;2024-03-02T08:13:09;100490.34;;;6.33;100.00
7297;BME280;40758;54.038;11.684;2024-03-02T08:15:36;100501.16;;;6.40;100.00
7297;BME280;40758;54.038;11.684;2024-03-02T08:18:02;100497.88;;;6.45;100.00
7297;BME280;40758;54.038;11.684;2024-03-02T08:20:30;100485.22;;;6.45;100.00
7297;BME280;40758;54.038;11.684;2024-03-02T08:22:58;100490.66;;;6.58;100.00
7297;BME280;40758;54.038;11.684;2024-03-02T08:25:24;100501.91;;;6.69;100.00
7297;BME280;40758;54.038;11.684;2024-03-02T08:27:52;100493.63;;;6.77;100.00
7297;BME280;40758;54.038;11.684;2024-03-02T08:30:19;100499.25;;;6.82;100.00
7297;BME280;40758;54.038;11.684;2024-03-02T08:32:45;100496.19;;;6.91;100.00
7297;BME280;40758;54.038;11.684;2024-03-02T08:35:13;100503.47;;;6.98;100.00
7297;BME280;40758;54.038;11.684;2024-03-02T08:37:41;100489.97;;;7.04;100.00
7297;BME280;40758;54.038;11.684;2024-03-02T08:40:09;100493.50;;;7.11;100.00
7297;BME280;40758;54.038;11.684;2024-03-02T08:42:40;100497.47;;;7.15;100.00
7297;BME280;40758;54.038;11.684;2024-03-02T08:45:08;100492.28;;;7.14;100.00
7297;BME280;40758;54.038;11.684;2024-03-02T08:47:34;100496.88;;;7.13;100.00
7297;BME280;40758;54.038;11.684;2024-03-02T08:50:03;100504.97;;;7.13;100.00
7297;BME280;40758;54.038;11.684;2024-03-02T08:52:30;100500.56;;;7.12;100.00
7297;BME280;40758;54.038;11.684;2024-03-02T08:54:57;100494.34;;;7.12;100.00
7297;BME280;40758;54.038;11.684;2024-03-02T08:57:23;100495.00;;;7.20;100.00
7297;BME280;40758;54.038;11.684;2024-03-02T08:59:50;100487.72;;;7.28;100.00
7297;BME280;40758;54.038;11.684;2024-03-02T09:02:17;100492.09;;;7.35;100.00
7297;BME280;40758;54.038;11.684;2024-03-02T09:04:43;100490.25;;;7.42;100.00
7297;BME280;40758;54.038;11.684;2024-03-02T09:07:11;100491.28;;;7.48;100.00
7297;BME280;40758;54.038;11.684;2024-03-02T09:09:38;100489.00;;;7.52;100.00
7297;BME280;40758;54.038;11.684;2024-03-02T09:12:06;100490.66;;;7.53;100.00
7297;BME280;40758;54.038;11.684;2024-03-02T09:14:34;100491.47;;;7.53;100.00
7297;BME280;40758;54.038;11.684;2024-03-02T09:17:02;100494.00;;;7.55;100.00
7297;BME280;40758;54.038;11.684;2024-03-02T09:19:29;100496.69;;;7.55;100.00
7297;BME280;40758;54.038;11.684;2024-03-02T09:21:56;100497.75;;;7.60;100.00
7297;BME280;40758;54.038;11.684;2024-03-02T09:24:24;100495.03;;;7.60;100.00
7297;BME280;40758;54.038;11.684;2024-03-02T09:26:51;100495.03;;;7.60;100.00
7297;BME280;40758;54.038;11.684;2024-03-02T09:29:17;100499.41;;;7.61;100.00
7297;BME280;40758;54.038;11.684;2024-03-02T09:31:46;100494.22;;;7.60;100.00
7297;BME280;40758;54.038;11.684;2024-03-02T09:34:13;100501.06;;;7.62;100.00
7297;BME280;40758;54.038;11.684;2024-03-02T09:36:41;100504.38;;;7.64;100.00
7297;BME280;40758;54.038;11.684;2024-03-02T09:39:08;100504.59;;;7.63;100.00
7297;BME280;40758;54.038;11.684;2024-03-02T09:41:37;100517.25;;;7.76;100.00
7297;BME280;40758;54.038;11.684;2024-03-02T09:44:08;100521.84;;;7.82;100.00
7297;BME280;40758;54.038;11.684;2024-03-02T09:46:35;100521.81;;;7.88;100.00
7297;BME280;40758;54.038;11.684;2024-03-02T09:49:03;100526.81;;;7.98;100.00
7297;BME280;40758;54.038;11.684;2024-03-02T09:51:32;100527.22;;;8.08;100.00
7297;BME280;40758;54.038;11.684;2024-03-02T09:54:00;100530.53;;;8.17;100.00
7297;BME280;40758;54.038;11.684;2024-03-02T09:56:44;100538.00;;;8.28;100.00
7297;BME280;40758;54.038;11.684;2024-03-02T09:59:11;100538.81;;;8.28;100.00
7297;BME280;40758;54.038;11.684;2024-03-02T10:01:40;100532.81;;;8.26;100.00
7297;BME280;40758;54.038;11.684;2024-03-02T10:04:23;100529.69;;;8.23;100.00
7297;BME280;40758;54.038;11.684;2024-03-02T10:06:51;100525.31;;;8.22;100.00
7297;BME280;40758;54.038;11.684;2024-03-02T10:09:27;100529.69;;;8.23;100.00
7297;BME280;40758;54.038;11.684;2024-03-02T10:12:04;100531.16;;;8.25;100.00
7297;BME280;40758;54.038;11.684;2024-03-02T10:14:31;100527.59;;;8.32;100.00
7297;BME280;40758;54.038;11.684;2024-03-02T10:17:09;100531.75;;;8.34;100.00
7297;BME280;40758;54.038;11.684;2024-03-02T10:19:36;100535.94;;;8.37;100.00
7297;BME280;40758;54.038;11.684;2024-03-02T10:22:06;100533.84;;;8.39;100.00
7297;BME280;40758;54.038;11.684;2024-03-02T10:24:43;100541.34;;;8.43;100.00
7297;BME280;40758;54.038;11.684;2024-03-02T10:27:26;100541.31;;;8.50;100.00
7297;BME280;40758;54.038;11.684;2024-03-02T10:29:53;100549.22;;;8.58;100.00
7297;BME280;40758;54.038;11.684;2024-03-02T10:32:22;100544.38;;;8.67;100.00
7297;BME280;40758;54.038;11.684;2024-03-02T10:34:49;100547.47;;;8.77;100.00
7297;BME280;40758;54.038;11.684;2024-03-02T10:37:16;100550.72;;;8.92;100.00
7297;BME280;40758;54.038;11.684;2024-03-02T10:39:47;100542.16;;;9.02;100.00
7297;BME280;40758;54.038;11.684;2024-03-02T10:42:14;100553.31;;;9.19;100.00
7297;BME280;40758;54.038;11.684;2024-03-02T10:44:41;100568.44;;;9.33;100.00
7297;BME280;40758;54.038;11.684;2024-03-02T10:47:12;100561.22;;;9.58;100.00
7297;BME280;40758;54.038;11.684;2024-03-02T10:49:42;100554.09;;;9.89;100.00
7297;BME280;40758;54.038;11.684;2024-03-02T10:52:12;100556.56;;;10.41;100.00
7297;BME280;40758;54.038;11.684;2024-03-02T10:54:38;100555.31;;;10.80;100.00
7297;BME280;40758;54.038;11.684;2024-03-02T10:57:07;100558.97;;;11.04;100.00
7297;BME280;40758;54.038;11.684;2024-03-02T10:59:37;100556.06;;;11.17;100.00
7297;BME280;40758;54.038;11.684;2024-03-02T11:02:11;100546.13;;;11.11;100.00
7297;BME280;40758;54.038;11.684;2024-03-02T11:04:40;100549.75;;;11.05;100.00
7297;BME280;40758;54.038;11.684;2024-03-02T11:07:10;100555.44;;;11.03;100.00
7297;BME280;40758;54.038;11.684;2024-03-02T11:09:41;100559.81;;;11.04;100.00
7297;BME280;40758;54.038;11.684;2024-03-02T11:12:29;100556.84;;;11.06;100.00
7297;BME280;40758;54.038;11.684;2024-03-02T11:14:56;100553.38;;;10.99;100.00
7297;BME280;40758;54.038;11.684;2024-03-02T11:17:23;100553.38;;;10.99;100.00
7297;BME280;40758;54.038;11.684;2024-03-02T11:19:51;100566.06;;;11.05;100.00
7297;BME280;40758;54.038;11.684;2024-03-02T11:22:18;100553.22;;;11.12;100.00
7297;BME280;40758;54.038;11.684;2024-03-02T11:24:49;100551.25;;;11.19;100.00
7297;BME280;40758;54.038;11.684;2024-03-02T11:32:59;100538.53;;;11.31;100.00
7297;BME280;40758;54.038;11.684;2024-03-02T11:35:26;100538.00;;;11.53;100.00
7297;BME280;40758;54.038;11.684;2024-03-02T11:37:53;100529.47;;;11.91;100.00
7297;BME280;40758;54.038;11.684;2024-03-02T11:40:27;100520.47;;;12.37;100.00
7297;BME280;40758;54.038;11.684;2024-03-02T11:42:56;100511.91;;;12.57;100.00
7297;BME280;40758;54.038;11.684;2024-03-02T11:45:27;100511.47;;;12.48;100.00
7297;BME280;40758;54.038;11.684;2024-03-02T11:47:54;100504.81;;;12.44;100.00
7297;BME280;40758;54.038;11.684;2024-03-02T11:50:33;100502.78;;;12.51;100.00
7297;BME280;40758;54.038;11.684;2024-03-02T11:53:03;100497.78;;;13.41;100.00
7297;BME280;40758;54.038;11.684;2024-03-02T11:55:35;100492.16;;;14.36;100.00
7297;BME280;40758;54.038;11.684;2024-03-02T11:58:06;100483.03;;;15.13;100.00
7297;BME280;40758;54.038;11.684;2024-03-02T12:00:33;100472.88;;;15.68;100.00
7297;BME280;40758;54.038;11.684;2024-03-02T12:03:12;100463.59;;;16.16;100.00
7297;BME280;40758;54.038;11.684;2024-03-02T12:05:40;100450.00;;;16.32;100.00
7297;BME280;40758;54.038;11.684;2024-03-02T12:08:07;100459.16;;;16.53;100.00
7297;BME280;40758;54.038;11.684;2024-03-02T12:10:35;100457.25;;;16.53;100.00
7297;BME280;40758;54.038;11.684;2024-03-02T12:13:07;100455.00;;;16.50;100.00
7297;BME280;40758;54.038;11.684;2024-03-02T12:15:35;100460.03;;;16.68;100.00
7297;BME280;40758;54.038;11.684;2024-03-02T12:18:06;100450.19;;;16.72;100.00
7297;BME280;40758;54.038;11.684;2024-03-02T12:20:33;100462.59;;;16.95;100.00
7297;BME280;40758;54.038;11.684;2024-03-02T12:23:02;100461.00;;;17.10;100.00
7297;BME280;40758;54.038;11.684;2024-03-02T12:25:31;100445.34;;;16.95;100.00
7297;BME280;40758;54.038;11.684;2024-03-02T12:28:00;100462.94;;;17.24;100.00
7297;BME280;40758;54.038;11.684;2024-03-02T12:30:31;100462.13;;;17.54;100.00
7297;BME280;40758;54.038;11.684;2024-03-02T12:33:01;100448.69;;;17.73;100.00
7297;BME280;40758;54.038;11.684;2024-03-02T12:35:29;100452.25;;;17.43;100.00
7297;BME280;40758;54.038;11.684;2024-03-02T12:37:56;100446.47;;;17.24;100.00
7297;BME280;40758;54.038;11.684;2024-03-02T12:40:24;100443.91;;;16.19;100.00
7297;BME280;40758;54.038;11.684;2024-03-02T12:42:50;100435.59;;;15.35;100.00
7297;BME280;40758;54.038;11.684;2024-03-02T12:45:18;100442.81;;;15.14;100.00
7297;BME280;40758;54.038;11.684;2024-03-02T12:47:52;100441.22;;;14.91;100.00
7297;BME280;40758;54.038;11.684;2024-03-02T12:50:20;100449.38;;;14.64;100.00
7297;BME280;40758;54.038;11.684;2024-03-02T12:52:54;100445.41;;;14.77;100.00
7297;BME280;40758;54.038;11.684;2024-03-02T12:55:22;100439.28;;;15.83;100.00
7297;BME280;40758;54.038;11.684;2024-03-02T12:57:51;100440.91;;;16.84;100.00
7297;BME280;40758;54.038;11.684;2024-03-02T13:00:20;100426.44;;;17.54;100.00
7297;BME280;40758;54.038;11.684;2024-03-02T13:02:47;100441.56;;;17.83;100.00